createdAt,value
2022-12-12T00:00:25.863Z,81.60
2022-12-12T00:01:25.804Z,80.00
2022-12-12T00:02:25.952Z,113.30
2022-12-12T00:03:25.930Z,82.70
2022-12-12T00:04:25.792Z,81.50
2022-12-12T00:05:25.729Z,105.50
2022-12-12T00:06:25.774Z,90.30
2022-12-12T00:07:25.698Z,87.00
2022-12-12T00:08:25.887Z,78.70
2022-12-12T00:09:25.730Z,80.10
2022-12-12T00:10:25.691Z,76.00
2022-12-12T00:11:25.688Z,72.80
2022-12-12T00:12:25.663Z,80.40
2022-12-12T00:13:25.609Z,84.90
2022-12-12T00:14:25.803Z,70.10
2022-12-12T00:15:25.636Z,69.60
2022-12-12T00:16:25.643Z,72.70
2022-12-12T00:17:25.584Z,98.40
2022-12-12T00:18:25.615Z,72.60
2022-12-12T00:19:25.545Z,86.40
2022-12-12T00:20:25.619Z,79.70
2022-12-12T00:21:25.564Z,79.90
2022-12-12T00:22:25.525Z,101.40
2022-12-12T00:23:25.518Z,82.10
2022-12-12T00:24:25.508Z,79.70
2022-12-12T00:25:25.462Z,99.60
2022-12-12T00:26:25.536Z,80.00
2022-12-12T00:27:25.429Z,74.80
2022-12-12T00:28:25.479Z,83.80
2022-12-12T00:29:25.436Z,100.60
2022-12-12T00:30:25.421Z,102.40
2022-12-12T00:31:25.439Z,102.40
2022-12-12T00:32:25.460Z,106.90
2022-12-12T00:33:25.391Z,95.60
2022-12-12T00:34:25.380Z,104.80
2022-12-12T00:35:25.363Z,108.90
2022-12-12T00:36:25.335Z,84.40
2022-12-12T00:37:25.317Z,84.00
2022-12-12T00:38:25.388Z,86.00
2022-12-12T00:39:25.284Z,106.10
2022-12-12T00:40:25.339Z,92.00
2022-12-12T00:41:25.294Z,87.90
2022-12-12T00:42:25.264Z,81.50
2022-12-12T00:43:25.253Z,90.90
2022-12-12T00:44:25.276Z,96.50
2022-12-12T00:45:25.200Z,89.10
2022-12-12T00:46:25.303Z,81.00
2022-12-12T00:47:25.209Z,82.90
2022-12-12T00:48:25.187Z,97.40
2022-12-12T00:49:25.157Z,83.20
2022-12-12T00:50:25.314Z,84.90
2022-12-12T00:51:25.164Z,98.90
2022-12-12T00:52:25.153Z,88.50
2022-12-12T00:53:25.130Z,84.80
2022-12-12T00:54:25.116Z,82.10
2022-12-12T00:55:25.084Z,97.00
2022-12-12T00:56:25.222Z,85.20
2022-12-12T00:57:25.042Z,82.90
2022-12-12T00:58:25.103Z,104.80
2022-12-12T00:59:25.046Z,80.10
2022-12-12T01:00:25.054Z,108.10
2022-12-12T01:01:25.059Z,89.30
2022-12-12T01:02:28.315Z,93.90
2022-12-12T01:03:24.988Z,85.20
2022-12-12T01:04:24.984Z,84.40
2022-12-12T01:05:25.918Z,85.30
2022-12-12T01:06:24.989Z,113.10
2022-12-12T01:07:24.924Z,102.40
2022-12-12T01:08:25.134Z,101.30
2022-12-12T01:09:24.940Z,95.10
2022-12-12T01:10:24.912Z,101.80
2022-12-12T01:11:24.877Z,88.60
2022-12-12T01:12:24.889Z,86.20
2022-12-12T01:13:24.843Z,86.70
2022-12-12T01:14:24.917Z,89.20
2022-12-12T01:15:24.815Z,104.70
2022-12-12T01:16:24.988Z,97.20
2022-12-12T01:17:24.819Z,98.90
2022-12-12T01:18:24.798Z,105.20
2022-12-12T01:19:24.753Z,92.90
2022-12-12T01:20:24.949Z,99.20
2022-12-12T01:21:25.633Z,87.80
2022-12-12T01:22:24.753Z,88.20
2022-12-12T01:23:24.751Z,85.20
2022-12-12T01:24:24.726Z,84.20
2022-12-12T01:25:24.678Z,92.50
2022-12-12T01:26:24.786Z,95.20
2022-12-12T01:27:24.653Z,94.30
2022-12-12T01:28:24.691Z,94.60
2022-12-12T01:29:24.663Z,89.30
2022-12-12T01:30:24.678Z,79.90
2022-12-12T01:31:24.646Z,83.80
2022-12-12T01:32:24.736Z,82.30
2022-12-12T01:33:24.586Z,95.40
2022-12-12T01:34:24.648Z,100.00
2022-12-12T01:35:24.582Z,87.50
2022-12-12T01:36:24.586Z,86.70
2022-12-12T01:37:24.527Z,82.10
2022-12-12T01:38:24.708Z,112.60
2022-12-12T01:39:24.526Z,89.00
2022-12-12T01:40:24.561Z,99.10
2022-12-12T01:41:24.521Z,83.90
2022-12-12T01:42:24.487Z,74.90
2022-12-12T01:43:24.475Z,79.10
2022-12-12T01:44:24.517Z,83.00
2022-12-12T01:45:24.434Z,79.50
2022-12-12T01:46:24.514Z,91.00
2022-12-12T01:47:24.421Z,80.60
2022-12-12T01:48:24.447Z,82.00
2022-12-12T01:49:24.425Z,77.10
2022-12-12T01:50:24.502Z,97.80
2022-12-12T01:51:24.353Z,78.30
2022-12-12T01:52:24.386Z,92.20
2022-12-12T01:53:24.335Z,83.90
2022-12-12T01:54:24.349Z,78.60
2022-12-12T01:55:24.318Z,77.90
2022-12-12T01:56:24.349Z,97.00
2022-12-12T01:57:24.291Z,96.60
2022-12-12T01:58:24.324Z,92.50
2022-12-12T01:59:24.250Z,90.20
2022-12-12T02:00:24.383Z,94.90
2022-12-12T02:01:24.255Z,94.40
2022-12-12T02:02:24.419Z,124.50
2022-12-12T02:03:24.245Z,115.80
2022-12-12T02:04:24.228Z,130.30
2022-12-12T02:05:24.227Z,106.90
2022-12-12T02:06:24.212Z,115.70
2022-12-12T02:07:24.167Z,106.30
2022-12-12T02:08:24.388Z,103.00
2022-12-12T02:09:25.025Z,98.50
2022-12-12T02:10:24.141Z,96.60
2022-12-12T02:11:24.112Z,129.30
2022-12-12T02:12:24.093Z,118.10
2022-12-12T02:13:24.077Z,121.10
2022-12-12T02:14:24.131Z,137.60
2022-12-12T02:15:24.044Z,121.80
2022-12-12T02:16:24.146Z,115.20
2022-12-12T02:17:24.043Z,111.20
2022-12-12T02:18:24.026Z,105.90
2022-12-12T02:19:24.004Z,104.80
2022-12-12T02:20:24.133Z,128.10
2022-12-12T02:21:23.967Z,109.30
2022-12-12T02:22:24.023Z,104.00
2022-12-12T02:23:23.974Z,128.30
2022-12-12T02:24:26.072Z,124.70
2022-12-12T02:25:23.907Z,112.50
2022-12-12T02:26:24.001Z,110.90
2022-12-12T02:27:23.891Z,113.40
2022-12-12T02:28:23.936Z,120.80
2022-12-12T02:29:23.893Z,101.00
2022-12-12T02:30:23.878Z,102.90
2022-12-12T02:31:23.881Z,130.60
2022-12-12T02:32:23.885Z,115.40
2022-12-12T02:33:23.822Z,116.40
2022-12-12T02:34:23.854Z,118.30
2022-12-12T02:35:23.780Z,106.40
2022-12-12T02:36:23.822Z,101.20
2022-12-12T02:37:23.780Z,109.40
2022-12-12T02:38:23.792Z,105.50
2022-12-12T02:39:23.734Z,105.80
2022-12-12T02:40:23.779Z,109.90
2022-12-12T02:41:23.718Z,132.00
2022-12-12T02:42:23.724Z,121.40
2022-12-12T02:43:23.700Z,135.80
2022-12-12T02:44:23.701Z,117.10
2022-12-12T02:45:23.659Z,103.40
2022-12-12T02:46:23.733Z,100.80
2022-12-12T02:47:23.632Z,126.70
2022-12-12T02:48:23.668Z,126.30
2022-12-12T02:49:23.627Z,131.90
2022-12-12T02:50:23.649Z,117.50
2022-12-12T02:51:23.610Z,124.80
2022-12-12T02:52:23.592Z,105.90
2022-12-12T02:53:23.548Z,100.80
2022-12-12T02:54:23.607Z,100.10
2022-12-12T02:55:23.564Z,120.60
2022-12-12T02:56:23.651Z,105.30
2022-12-12T02:57:23.494Z,107.40
2022-12-12T02:58:23.539Z,135.90
2022-12-12T02:59:23.486Z,135.10
2022-12-12T03:00:23.518Z,125.00
2022-12-12T03:01:23.460Z,123.00
2022-12-12T03:02:23.511Z,106.20
2022-12-12T03:03:23.444Z,101.80
2022-12-12T03:04:23.424Z,102.10
2022-12-12T03:05:23.406Z,114.20
2022-12-12T03:06:23.432Z,97.40
2022-12-12T03:07:23.370Z,95.10
2022-12-12T03:08:23.561Z,98.20
2022-12-12T03:09:23.363Z,119.40
2022-12-12T03:10:23.354Z,99.70
2022-12-12T03:11:23.346Z,105.50
2022-12-12T03:12:23.322Z,115.30
2022-12-12T03:13:23.344Z,100.90
2022-12-12T03:14:23.295Z,98.20
2022-12-12T03:15:23.314Z,96.70
2022-12-12T03:16:23.300Z,114.50
2022-12-12T03:17:23.266Z,95.70
2022-12-12T03:18:23.252Z,96.60
2022-12-12T03:19:23.246Z,104.30
2022-12-12T03:20:23.273Z,97.50
2022-12-12T03:21:23.263Z,91.50
2022-12-12T03:22:23.204Z,95.50
2022-12-12T03:23:23.232Z,91.40
2022-12-12T03:24:23.147Z,113.90
2022-12-12T03:25:23.158Z,100.60
2022-12-12T03:26:23.285Z,108.50
2022-12-12T03:27:23.151Z,109.00
2022-12-12T03:28:23.107Z,113.00
2022-12-12T03:29:23.107Z,105.70
2022-12-12T03:30:23.103Z,98.80
2022-12-12T03:31:23.119Z,90.80
2022-12-12T03:32:23.114Z,89.50
2022-12-12T03:33:23.095Z,99.90
2022-12-12T03:34:23.011Z,89.50
2022-12-12T03:35:23.086Z,91.60
2022-12-12T03:36:22.986Z,91.10
2022-12-12T03:37:22.998Z,115.00
2022-12-12T03:38:23.017Z,105.90
2022-12-12T03:39:22.990Z,95.50
2022-12-12T03:40:22.976Z,90.30
2022-12-12T03:41:23.029Z,91.90
2022-12-12T03:42:22.900Z,120.10
2022-12-12T03:43:22.927Z,105.70
2022-12-12T03:44:22.945Z,101.70
2022-12-12T03:45:22.946Z,103.00
2022-12-12T03:46:22.872Z,104.20
2022-12-12T03:47:22.898Z,110.80
2022-12-12T03:48:22.825Z,96.50
2022-12-12T03:49:22.831Z,89.70
2022-12-12T03:50:22.888Z,93.90
2022-12-12T03:51:22.821Z,112.70
2022-12-12T03:52:22.810Z,105.10
2022-12-12T03:53:22.827Z,102.20
2022-12-12T03:54:22.758Z,97.40
2022-12-12T03:55:22.807Z,95.60
2022-12-12T03:56:22.755Z,92.90
2022-12-12T03:57:22.729Z,127.40
2022-12-12T03:58:22.728Z,99.50
2022-12-12T03:59:27.111Z,105.80
2022-12-12T04:00:22.677Z,99.20
2022-12-12T04:01:22.741Z,91.30
2022-12-12T04:02:22.748Z,92.70
2022-12-12T04:03:22.674Z,113.10
2022-12-12T04:04:22.650Z,104.00
2022-12-12T04:05:22.654Z,105.00
2022-12-12T04:06:22.610Z,107.90
2022-12-12T04:07:22.642Z,97.60
2022-12-12T04:08:22.620Z,90.90
2022-12-12T04:09:22.589Z,90.10
2022-12-12T04:10:22.582Z,119.60
2022-12-12T04:11:22.558Z,96.30
2022-12-12T04:12:22.546Z,96.50
2022-12-12T04:13:26.178Z,95.70
2022-12-12T04:14:23.620Z,96.70
2022-12-12T04:15:22.580Z,109.40
2022-12-12T04:16:22.506Z,105.10
2022-12-12T04:17:22.483Z,97.10
2022-12-12T04:18:22.483Z,98.00
2022-12-12T04:19:22.451Z,108.70
2022-12-12T04:20:22.580Z,97.50
2022-12-12T04:21:22.455Z,95.40
2022-12-12T04:22:27.108Z,94.50
2022-12-12T04:23:23.434Z,115.30
2022-12-12T04:24:22.371Z,93.80
2022-12-12T04:25:22.397Z,91.80
2022-12-12T04:26:22.414Z,93.20
2022-12-12T04:27:22.361Z,104.70
2022-12-12T04:28:22.345Z,87.60
2022-12-12T04:29:22.355Z,85.50
2022-12-12T04:30:22.294Z,101.20
2022-12-12T04:31:22.337Z,90.80
2022-12-12T04:32:22.435Z,92.30
2022-12-12T04:33:22.309Z,97.00
2022-12-12T04:34:22.240Z,109.00
2022-12-12T04:35:22.286Z,99.50
2022-12-12T04:36:22.209Z,89.70
2022-12-12T04:37:22.231Z,92.20
2022-12-12T04:38:22.335Z,96.80
2022-12-12T04:39:22.199Z,94.50
2022-12-12T04:40:22.185Z,93.80
2022-12-12T04:41:22.197Z,86.60
2022-12-12T04:42:22.132Z,98.40
2022-12-12T04:43:22.179Z,87.20
2022-12-12T04:44:22.141Z,84.20
2022-12-12T04:45:22.125Z,84.30
2022-12-12T04:46:22.156Z,98.70
2022-12-12T04:47:22.131Z,87.30
2022-12-12T04:48:22.078Z,88.90
2022-12-12T04:49:22.093Z,104.30
2022-12-12T04:50:22.185Z,95.40
2022-12-12T04:51:22.042Z,87.70
2022-12-12T04:52:22.043Z,96.60
2022-12-12T04:53:22.050Z,94.10
2022-12-12T04:54:22.023Z,90.60
2022-12-12T04:55:22.022Z,99.60
2022-12-12T04:56:21.973Z,88.20
2022-12-12T04:57:21.985Z,82.40
2022-12-12T04:58:21.959Z,91.20
2022-12-12T04:59:21.945Z,84.50
2022-12-12T05:00:21.929Z,88.20
2022-12-12T05:01:22.024Z,102.30
2022-12-12T05:02:21.951Z,103.30
2022-12-12T05:03:21.884Z,91.00
2022-12-12T05:04:21.880Z,90.60
2022-12-12T05:05:21.890Z,95.70
2022-12-12T05:06:21.828Z,92.80
2022-12-12T05:07:21.870Z,90.60
2022-12-12T05:08:21.984Z,88.70
2022-12-12T05:09:21.819Z,84.70
2022-12-12T05:10:21.804Z,96.40
2022-12-12T05:11:21.788Z,87.80
2022-12-12T05:12:21.774Z,82.30
2022-12-12T05:13:21.814Z,94.70
2022-12-12T05:14:21.766Z,85.80
2022-12-12T05:15:21.772Z,86.10
2022-12-12T05:16:21.806Z,90.60
2022-12-12T05:17:21.714Z,87.30
2022-12-12T05:18:21.703Z,90.40
2022-12-12T05:19:21.679Z,91.90
2022-12-12T05:20:21.703Z,86.30
2022-12-12T05:21:21.678Z,91.00
2022-12-12T05:22:21.624Z,93.50
2022-12-12T05:23:21.676Z,85.70
2022-12-12T05:24:21.598Z,97.30
2022-12-12T05:25:21.605Z,99.40
2022-12-12T05:26:21.736Z,88.40
2022-12-12T05:27:21.608Z,96.90
2022-12-12T05:28:21.564Z,92.30
2022-12-12T05:29:21.585Z,87.20
2022-12-12T05:30:21.526Z,102.70
2022-12-12T05:31:21.565Z,99.90
2022-12-12T05:32:21.529Z,92.60
2022-12-12T05:33:21.523Z,98.60
2022-12-12T05:34:21.496Z,96.40
2022-12-12T05:35:21.520Z,88.60
2022-12-12T05:36:21.446Z,96.10
2022-12-12T05:37:21.481Z,100.30
2022-12-12T05:38:21.556Z,84.40
2022-12-12T05:39:21.445Z,95.30
2022-12-12T05:40:21.417Z,94.30
2022-12-12T05:41:21.426Z,86.30
2022-12-12T05:42:21.362Z,92.70
2022-12-12T05:43:21.416Z,91.60
2022-12-12T05:44:21.473Z,84.30
2022-12-12T05:45:21.360Z,95.20
2022-12-12T05:46:21.468Z,89.30
2022-12-12T05:47:21.344Z,88.00
2022-12-12T05:48:24.455Z,91.00
2022-12-12T05:49:21.336Z,91.90
2022-12-12T05:50:21.291Z,90.80
2022-12-12T05:51:21.293Z,91.90
2022-12-12T05:52:21.280Z,93.20
2022-12-12T05:53:21.301Z,87.20
2022-12-12T05:54:21.223Z,94.40
2022-12-12T05:55:21.260Z,91.60
2022-12-12T05:56:21.255Z,93.50
2022-12-12T05:57:21.203Z,94.60
2022-12-12T05:58:21.189Z,91.50
2022-12-12T05:59:21.171Z,101.20
2022-12-12T06:00:21.170Z,98.50
2022-12-12T06:01:21.201Z,89.40
2022-12-12T06:02:21.478Z,92.90
2022-12-12T06:03:21.160Z,97.30
2022-12-12T06:04:21.127Z,92.40
2022-12-12T06:05:21.098Z,102.70
2022-12-12T06:06:21.090Z,93.60
2022-12-12T06:07:21.112Z,96.90
2022-12-12T06:08:25.047Z,93.40
2022-12-12T06:09:21.043Z,95.80
2022-12-12T06:10:21.045Z,103.70
2022-12-12T06:11:21.025Z,97.80
2022-12-12T06:12:21.003Z,103.30
2022-12-12T06:13:21.023Z,97.40
2022-12-12T06:14:21.088Z,90.00
2022-12-12T06:15:20.995Z,92.60
2022-12-12T06:16:20.994Z,95.80
2022-12-12T06:17:20.963Z,91.40
2022-12-12T06:18:20.940Z,100.30
2022-12-12T06:19:20.904Z,95.40
2022-12-12T06:20:20.975Z,88.10
2022-12-12T06:21:20.928Z,95.20
2022-12-12T06:22:20.883Z,92.30
2022-12-12T06:23:20.885Z,99.20
2022-12-12T06:24:20.860Z,96.00
2022-12-12T06:25:20.863Z,91.90
2022-12-12T06:26:20.975Z,95.50
2022-12-12T06:27:20.819Z,85.30
2022-12-12T06:28:20.807Z,86.60
2022-12-12T06:29:20.806Z,92.50
2022-12-12T06:30:20.757Z,92.00
2022-12-12T06:31:20.831Z,87.20
2022-12-12T06:32:20.776Z,90.60
2022-12-12T06:33:20.746Z,88.30
2022-12-12T06:34:20.749Z,88.30
2022-12-12T06:35:20.710Z,86.10
2022-12-12T06:36:20.697Z,84.10
2022-12-12T06:37:20.720Z,87.20
2022-12-12T06:38:20.674Z,86.40
2022-12-12T06:39:20.663Z,78.80
2022-12-12T06:40:20.662Z,79.40
2022-12-12T06:41:20.662Z,75.70
2022-12-12T06:42:20.592Z,79.70
2022-12-12T06:43:20.641Z,81.60
2022-12-12T06:44:20.682Z,79.50
2022-12-12T06:45:20.611Z,80.30
2022-12-12T06:46:20.637Z,86.60
2022-12-12T06:47:20.561Z,70.60
2022-12-12T06:48:20.567Z,82.20
2022-12-12T06:49:20.566Z,83.00
2022-12-12T06:50:23.825Z,87.00
2022-12-12T06:51:20.552Z,84.50
2022-12-12T06:52:20.476Z,84.10
2022-12-12T06:53:20.486Z,90.00
2022-12-12T06:54:20.479Z,91.10
2022-12-12T06:55:20.496Z,88.40
2022-12-12T06:56:20.453Z,88.30
2022-12-12T06:57:20.437Z,86.40
2022-12-12T06:58:20.400Z,88.50
2022-12-12T06:59:20.434Z,87.80
2022-12-12T07:00:20.396Z,91.60
2022-12-12T07:01:20.496Z,88.20
2022-12-12T07:02:24.558Z,91.60
2022-12-12T07:03:21.402Z,87.90
2022-12-12T07:04:20.325Z,89.80
2022-12-12T07:05:20.315Z,83.60
2022-12-12T07:06:21.038Z,84.90
2022-12-12T07:07:20.306Z,90.80
2022-12-12T07:08:20.418Z,81.90
2022-12-12T07:09:20.320Z,85.60
2022-12-12T07:10:21.559Z,80.20
2022-12-12T07:11:20.248Z,87.30
2022-12-12T07:12:20.255Z,89.40
2022-12-12T07:13:20.245Z,85.60
2022-12-12T07:14:20.233Z,85.80
2022-12-12T07:15:20.233Z,85.50
2022-12-12T07:16:20.256Z,83.60
2022-12-12T07:17:20.196Z,83.80
2022-12-12T07:18:20.162Z,84.60
2022-12-12T07:19:20.156Z,85.40
2022-12-12T07:20:20.273Z,83.70
2022-12-12T07:21:20.153Z,82.10
2022-12-12T07:22:20.092Z,90.30
2022-12-12T07:23:20.116Z,83.00
2022-12-12T07:24:20.070Z,89.40
2022-12-12T07:25:26.782Z,87.80
2022-12-12T07:26:20.098Z,85.50
2022-12-12T07:27:21.791Z,94.10
2022-12-12T07:28:20.070Z,84.60
2022-12-12T07:29:20.018Z,86.70
2022-12-12T07:30:20.019Z,84.20
2022-12-12T07:31:20.044Z,86.60
2022-12-12T07:32:20.002Z,86.00
2022-12-12T07:33:19.956Z,88.40
2022-12-12T07:34:19.987Z,91.00
2022-12-12T07:35:19.918Z,91.60
2022-12-12T07:36:20.067Z,92.60
2022-12-12T07:37:19.931Z,85.40
2022-12-12T07:38:19.984Z,84.80
2022-12-12T07:39:21.163Z,89.00
2022-12-12T07:40:19.902Z,89.90
2022-12-12T07:41:19.834Z,88.80
2022-12-12T07:42:19.894Z,81.70
2022-12-12T07:43:19.841Z,84.20
2022-12-12T07:44:19.877Z,86.70
2022-12-12T07:45:20.348Z,83.10
2022-12-12T07:46:19.896Z,87.20
2022-12-12T07:47:19.799Z,83.90
2022-12-12T07:48:19.815Z,81.40
2022-12-12T07:49:19.773Z,87.80
2022-12-12T07:50:19.887Z,84.90
2022-12-12T07:51:19.752Z,86.00
2022-12-12T07:52:19.765Z,81.60
2022-12-12T07:53:19.718Z,79.40
2022-12-12T07:54:19.735Z,82.60
2022-12-12T07:55:19.672Z,81.00
2022-12-12T07:56:19.754Z,82.50
2022-12-12T07:57:19.676Z,79.10
2022-12-12T07:58:19.660Z,88.80
2022-12-12T07:59:19.610Z,87.00
2022-12-12T08:00:19.656Z,84.80
2022-12-12T08:01:19.645Z,86.40
2022-12-12T08:02:19.694Z,90.60
2022-12-12T08:03:19.632Z,85.30
2022-12-12T08:04:19.634Z,85.80
2022-12-12T08:05:19.583Z,86.40
2022-12-12T08:06:19.588Z,82.60
2022-12-12T08:07:19.523Z,82.60
2022-12-12T08:08:19.740Z,85.50
2022-12-12T08:09:19.517Z,84.70
2022-12-12T08:10:19.541Z,86.60
2022-12-12T08:11:19.501Z,88.90
2022-12-12T08:12:19.479Z,81.10
2022-12-12T08:13:19.451Z,87.90
2022-12-12T08:14:19.520Z,87.30
2022-12-12T08:15:19.448Z,92.50
2022-12-12T08:16:19.487Z,90.60
2022-12-12T08:17:19.393Z,91.90
2022-12-12T08:18:19.418Z,94.30
2022-12-12T08:19:19.355Z,85.10
2022-12-12T08:20:19.528Z,94.60
2022-12-12T08:21:25.346Z,89.50
2022-12-12T08:22:20.390Z,85.80
2022-12-12T08:23:19.338Z,90.30
2022-12-12T08:24:19.332Z,88.70
2022-12-12T08:25:19.305Z,99.20
2022-12-12T08:26:19.370Z,95.20
2022-12-12T08:27:19.262Z,87.20
2022-12-12T08:28:19.292Z,99.20
2022-12-12T08:29:19.259Z,93.60
2022-12-12T08:30:19.235Z,89.30
2022-12-12T08:31:19.290Z,87.60
2022-12-12T08:32:19.335Z,95.20
2022-12-12T08:33:19.202Z,90.50
2022-12-12T08:34:19.255Z,91.20
2022-12-12T08:35:19.152Z,92.80
2022-12-12T08:36:19.188Z,89.20
2022-12-12T08:37:19.165Z,88.80
2022-12-12T08:38:19.197Z,99.70
2022-12-12T08:39:19.141Z,95.00
2022-12-12T08:40:19.167Z,90.40
2022-12-12T08:41:19.088Z,99.70
2022-12-12T08:42:19.124Z,93.30
2022-12-12T08:43:19.048Z,95.30
2022-12-12T08:44:19.112Z,97.20
2022-12-12T08:45:19.073Z,89.30
2022-12-12T08:46:19.115Z,88.70
2022-12-12T08:47:18.987Z,104.30
2022-12-12T08:48:19.053Z,93.50
2022-12-12T08:49:19.002Z,91.90
2022-12-12T08:50:19.022Z,88.60
2022-12-12T08:51:18.985Z,102.20
2022-12-12T08:52:18.947Z,91.50
2022-12-12T08:53:18.919Z,87.40
2022-12-12T08:54:18.966Z,86.20
2022-12-12T08:55:18.896Z,96.00
2022-12-12T08:56:19.046Z,89.80
2022-12-12T08:57:24.264Z,86.20
2022-12-12T08:58:19.886Z,80.90
2022-12-12T08:59:18.884Z,97.20
2022-12-12T09:00:18.878Z,88.60
2022-12-12T09:01:18.913Z,83.90
2022-12-12T09:02:19.078Z,89.20
2022-12-12T09:03:18.871Z,102.00
2022-12-12T09:04:18.826Z,89.20
2022-12-12T09:05:18.801Z,91.70
2022-12-12T09:06:18.817Z,85.10
2022-12-12T09:07:18.761Z,85.80
2022-12-12T09:08:18.907Z,105.80
2022-12-12T09:09:18.779Z,98.60
2022-12-12T09:10:18.741Z,89.60
2022-12-12T09:11:18.719Z,88.10
2022-12-12T09:12:18.724Z,96.90
2022-12-12T09:13:18.675Z,92.80
2022-12-12T09:14:18.745Z,83.90
2022-12-12T09:15:18.679Z,85.00
2022-12-12T09:16:18.741Z,107.00
2022-12-12T09:17:18.675Z,93.70
2022-12-12T09:18:18.642Z,94.60
2022-12-12T09:19:18.601Z,89.20
2022-12-12T09:20:18.674Z,91.30
2022-12-12T09:21:18.619Z,92.00
2022-12-12T09:22:18.586Z,86.20
2022-12-12T09:23:18.592Z,85.70
2022-12-12T09:24:18.582Z,92.20
2022-12-12T09:25:18.521Z,87.90
2022-12-12T09:26:18.673Z,86.70
2022-12-12T09:27:18.519Z,104.50
2022-12-12T09:28:18.536Z,88.30
2022-12-12T09:29:18.489Z,84.10
2022-12-12T09:30:18.487Z,88.90
2022-12-12T09:31:18.501Z,85.70
2022-12-12T09:32:22.765Z,105.10
2022-12-12T09:33:19.437Z,85.90
2022-12-12T09:34:18.506Z,83.40
2022-12-12T09:35:18.426Z,107.50
2022-12-12T09:36:18.432Z,100.00
2022-12-12T09:37:18.385Z,100.70
2022-12-12T09:38:18.530Z,100.20
2022-12-12T09:39:18.362Z,98.40
2022-12-12T09:40:18.394Z,84.40
2022-12-12T09:41:18.321Z,85.50
2022-12-12T09:42:18.356Z,105.30
2022-12-12T09:43:18.287Z,98.40
2022-12-12T09:44:18.437Z,82.00
2022-12-12T09:45:18.295Z,80.60
2022-12-12T09:46:18.291Z,109.00
2022-12-12T09:47:18.285Z,89.40
2022-12-12T09:48:18.274Z,86.60
2022-12-12T09:49:18.272Z,99.60
2022-12-12T09:50:18.347Z,97.10
2022-12-12T09:51:18.237Z,79.10
2022-12-12T09:52:18.199Z,82.80
2022-12-12T09:53:18.151Z,84.80
2022-12-12T09:54:18.199Z,80.80
2022-12-12T09:55:18.131Z,92.10
2022-12-12T09:56:18.294Z,83.00
2022-12-12T09:57:18.138Z,105.40
2022-12-12T09:58:18.109Z,80.30
2022-12-12T09:59:18.097Z,91.50
2022-12-12T10:00:18.119Z,96.80
2022-12-12T10:01:18.119Z,96.00
2022-12-12T10:02:18.257Z,82.80
2022-12-12T10:03:18.022Z,88.50
2022-12-12T10:04:18.216Z,83.20
2022-12-12T10:05:18.031Z,81.50
2022-12-12T10:07:19.100Z,101.60
2022-12-12T10:08:18.080Z,84.40
2022-12-12T10:09:17.971Z,89.90
2022-12-12T10:10:17.956Z,86.90
2022-12-12T10:11:18.002Z,84.00
2022-12-12T10:12:17.931Z,84.80
2022-12-12T10:13:18.007Z,84.20
2022-12-12T10:14:17.931Z,107.10
2022-12-12T10:15:17.895Z,101.70
2022-12-12T10:16:17.938Z,84.60
2022-12-12T10:17:17.889Z,82.90
2022-12-12T10:18:17.874Z,86.10
2022-12-12T10:19:17.883Z,81.20
2022-12-12T10:20:17.825Z,86.90
2022-12-12T10:21:17.805Z,80.60
2022-12-12T10:22:21.317Z,102.60
2022-12-12T10:23:18.798Z,101.00
2022-12-12T10:24:17.783Z,92.30
2022-12-12T10:25:17.761Z,82.60
2022-12-12T10:26:17.802Z,103.50
2022-12-12T10:27:17.721Z,77.10
2022-12-12T10:28:17.750Z,102.90
2022-12-12T10:29:17.719Z,97.20
2022-12-12T10:30:17.781Z,80.60
2022-12-12T10:31:17.861Z,89.00
2022-12-12T10:32:17.677Z,77.20
2022-12-12T10:33:17.631Z,89.10
2022-12-12T10:34:17.698Z,79.00
2022-12-12T10:35:22.770Z,93.00
2022-12-12T10:36:18.687Z,76.00
2022-12-12T10:37:17.608Z,94.30
2022-12-12T10:38:17.583Z,85.00
2022-12-12T10:39:17.580Z,109.10
2022-12-12T10:40:17.577Z,95.70
2022-12-12T10:41:17.533Z,89.00
2022-12-12T10:42:17.599Z,80.60
2022-12-12T10:43:17.502Z,78.90
2022-12-12T10:44:17.540Z,83.90
2022-12-12T10:45:17.543Z,103.80
2022-12-12T10:46:17.737Z,85.50
2022-12-12T10:47:17.470Z,80.70
2022-12-12T10:48:17.583Z,73.50
2022-12-12T10:49:17.422Z,82.50
2022-12-12T10:50:17.464Z,72.40
2022-12-12T10:51:17.406Z,85.20
2022-12-12T10:52:17.444Z,72.80
2022-12-12T10:53:17.401Z,94.80
2022-12-12T10:54:17.449Z,88.60
2022-12-12T10:55:17.335Z,75.50
2022-12-12T10:56:17.391Z,73.80
2022-12-12T10:57:20.431Z,75.70
2022-12-12T10:58:17.358Z,85.20
2022-12-12T10:59:17.323Z,84.80
2022-12-12T11:00:17.401Z,74.30
2022-12-12T11:01:17.292Z,83.40
2022-12-12T11:02:17.419Z,83.20
2022-12-12T11:03:17.323Z,71.50
2022-12-12T11:04:17.285Z,86.60
2022-12-12T11:05:17.244Z,70.50
2022-12-12T11:06:17.347Z,68.70
2022-12-12T11:07:17.236Z,81.90
2022-12-12T11:08:17.286Z,68.20
2022-12-12T11:09:17.160Z,78.00
2022-12-12T11:10:17.236Z,76.50
2022-12-12T11:11:17.156Z,70.20
2022-12-12T11:12:17.186Z,86.70
2022-12-12T11:13:17.109Z,71.60
2022-12-12T11:14:17.146Z,73.00
2022-12-12T11:15:17.089Z,72.60
2022-12-12T11:16:17.158Z,64.70
2022-12-12T11:17:17.079Z,77.60
2022-12-12T11:18:17.100Z,63.90
2022-12-12T11:19:17.057Z,80.10
2022-12-12T11:20:17.127Z,65.60
2022-12-12T11:21:17.017Z,83.00
2022-12-12T11:22:17.057Z,74.90
2022-12-12T11:23:18.445Z,75.00
2022-12-12T11:24:17.067Z,76.40
2022-12-12T11:25:16.981Z,81.10
2022-12-12T11:26:16.965Z,84.00
2022-12-12T11:27:16.923Z,78.50
2022-12-12T11:28:16.958Z,66.00
2022-12-12T11:29:16.929Z,71.80
2022-12-12T11:30:17.029Z,67.10
2022-12-12T11:31:16.913Z,77.00
2022-12-12T11:32:16.882Z,68.50
2022-12-12T11:33:16.860Z,72.90
2022-12-12T11:34:16.911Z,70.10
2022-12-12T11:35:16.807Z,76.20
2022-12-12T11:36:16.883Z,67.30
2022-12-12T11:37:16.831Z,75.80
2022-12-12T11:38:16.826Z,63.70
2022-12-12T11:39:16.800Z,81.20
2022-12-12T11:40:16.787Z,70.50
2022-12-12T11:41:16.757Z,74.40
2022-12-12T11:42:16.850Z,73.30
2022-12-12T11:43:16.807Z,72.10
2022-12-12T11:44:20.137Z,61.50
2022-12-12T11:45:16.751Z,64.60
2022-12-12T11:46:16.770Z,80.90
2022-12-12T11:47:16.710Z,68.30
2022-12-12T11:48:16.792Z,84.40
2022-12-12T11:49:16.693Z,87.00
2022-12-12T11:50:16.651Z,84.10
2022-12-12T11:51:16.663Z,75.10
2022-12-12T11:52:16.609Z,66.80
2022-12-12T11:53:16.622Z,66.70
2022-12-12T11:54:16.635Z,77.20
2022-12-12T11:55:16.649Z,73.00
2022-12-12T11:56:16.584Z,73.70
2022-12-12T11:57:16.593Z,81.00
2022-12-12T11:58:16.521Z,82.00
2022-12-12T11:59:16.524Z,72.90
2022-12-12T12:00:16.647Z,70.10
2022-12-12T12:01:16.536Z,74.00
2022-12-12T12:02:16.485Z,73.10
2022-12-12T12:03:16.541Z,62.40
2022-12-12T12:04:16.487Z,75.90
2022-12-12T12:05:16.545Z,68.20
2022-12-12T12:06:16.548Z,59.80
2022-12-12T12:07:16.434Z,69.90
2022-12-12T12:08:16.467Z,60.50
2022-12-12T12:09:16.433Z,75.20
2022-12-12T12:10:19.639Z,60.80
2022-12-12T12:11:17.437Z,77.40
2022-12-12T12:12:16.359Z,74.50
2022-12-12T12:13:16.357Z,69.00
2022-12-12T12:14:16.348Z,62.30
2022-12-12T12:15:16.528Z,58.40
2022-12-12T12:16:16.303Z,65.70
2022-12-12T12:17:16.432Z,70.60
2022-12-12T12:18:16.269Z,69.10
2022-12-12T12:19:16.272Z,80.40
2022-12-12T12:20:16.259Z,81.10
2022-12-12T12:21:16.300Z,67.30
2022-12-12T12:22:16.213Z,63.10
2022-12-12T12:23:16.269Z,65.40
2022-12-12T12:24:16.182Z,74.90
2022-12-12T12:25:16.482Z,64.30
2022-12-12T12:26:16.177Z,82.40
2022-12-12T12:27:16.173Z,83.80
2022-12-12T12:28:16.170Z,69.60
2022-12-12T12:29:16.205Z,61.80
2022-12-12T12:30:16.088Z,60.30
2022-12-12T12:31:16.248Z,71.10
2022-12-12T12:32:16.100Z,67.70
2022-12-12T12:33:16.119Z,78.80
2022-12-12T12:34:16.058Z,81.00
2022-12-12T12:35:16.328Z,76.80
2022-12-12T12:36:20.877Z,71.30
2022-12-12T12:37:17.703Z,60.40
2022-12-12T12:38:16.022Z,61.40
2022-12-12T12:39:16.025Z,68.70
2022-12-12T12:40:16.723Z,64.10
2022-12-12T12:41:16.063Z,71.90
2022-12-12T12:42:15.948Z,74.60
2022-12-12T12:43:15.983Z,69.20
2022-12-12T12:44:15.923Z,65.90
2022-12-12T12:45:16.313Z,71.60
2022-12-12T12:46:16.005Z,58.10
2022-12-12T12:47:16.012Z,61.00
2022-12-12T12:48:15.895Z,64.70